createdAt,value
2018-03-04T00:01:50.028Z,1.20
2018-03-04T00:04:17.549Z,1.20
2018-03-04T00:06:45.078Z,1.30
2018-03-04T00:09:12.589Z,1.30
2018-03-04T00:11:40.558Z,1.20
2018-03-04T00:14:08.476Z,1.10
2018-03-04T00:16:36.009Z,1.10
2018-03-04T00:19:03.907Z,1.10
2018-03-04T00:21:31.433Z,1.10
2018-03-04T00:23:58.970Z,1.00
2018-03-04T00:26:26.500Z,1.00
2018-03-04T00:28:54.008Z,1.00
2018-03-04T00:31:21.943Z,1.00
2018-03-04T00:33:49.459Z,1.00
2018-03-04T00:36:16.990Z,1.00
2018-03-04T00:38:44.891Z,1.00
2018-03-04T00:41:12.424Z,1.00
2018-03-04T00:43:40.421Z,0.90
2018-03-04T00:46:07.947Z,0.90
2018-03-04T00:48:35.944Z,0.90
2018-03-04T00:51:03.547Z,0.90
2018-03-04T00:53:31.160Z,0.90
2018-03-04T00:55:58.696Z,1.00
2018-03-04T00:58:26.595Z,1.00
2018-03-04T01:00:54.122Z,0.90
2018-03-04T01:03:21.638Z,0.90
2018-03-04T01:05:49.607Z,1.00
2018-03-04T01:08:17.121Z,1.00
2018-03-04T01:10:44.660Z,1.10
2018-03-04T01:13:12.575Z,1.10
2018-03-04T01:15:40.103Z,1.10
2018-03-04T01:18:07.662Z,1.10
2018-03-04T01:20:35.252Z,1.10
2018-03-04T01:23:02.762Z,1.20
2018-03-04T01:25:30.338Z,1.20
2018-03-04T01:27:57.865Z,1.30
2018-03-04T01:30:25.789Z,1.50
2018-03-04T01:32:53.327Z,1.50
2018-03-04T01:35:20.836Z,1.50
2018-03-04T01:37:48.364Z,1.50
2018-03-04T01:40:15.873Z,1.50
2018-03-04T01:42:43.799Z,1.50
2018-03-04T01:45:11.313Z,1.50
2018-03-04T01:47:38.848Z,1.40
2018-03-04T01:50:06.354Z,1.50
2018-03-04T01:52:33.995Z,1.50
2018-03-04T01:55:01.518Z,1.50
2018-03-04T01:57:29.456Z,1.50
2018-03-04T01:59:56.961Z,1.50
2018-03-04T02:02:24.896Z,1.50
2018-03-04T02:04:52.408Z,1.50
2018-03-04T02:07:19.943Z,1.50
2018-03-04T02:09:47.850Z,1.50
2018-03-04T02:12:15.398Z,1.50
2018-03-04T02:14:42.929Z,1.50
2018-03-04T02:17:10.491Z,1.50
2018-03-04T02:19:38.007Z,1.50
2018-03-04T02:22:05.547Z,1.60
2018-03-04T02:24:33.060Z,1.60
2018-03-04T02:27:00.600Z,1.60
2018-03-04T02:29:28.516Z,1.60
2018-03-04T02:31:56.065Z,1.50
2018-03-04T02:34:23.587Z,1.60
2018-03-04T02:36:51.550Z,1.50
2018-03-04T02:39:19.469Z,1.50
2018-03-04T02:41:47.012Z,1.50
2018-03-04T02:44:14.530Z,1.50
2018-03-04T02:46:42.051Z,1.60
2018-03-04T02:49:09.560Z,1.60
2018-03-04T02:51:37.494Z,1.60
2018-03-04T02:54:05.015Z,1.60
2018-03-04T02:56:32.677Z,1.60
2018-03-04T02:59:00.338Z,1.60
2018-03-04T03:01:27.840Z,1.60
2018-03-04T03:03:55.453Z,1.50
2018-03-04T03:06:22.959Z,1.30
2018-03-04T03:08:50.508Z,1.20
2018-03-04T03:11:18.021Z,1.10
2018-03-04T03:13:45.560Z,1.10
2018-03-04T03:16:13.090Z,1.00
2018-03-04T03:18:40.614Z,0.90
2018-03-04T03:21:08.135Z,0.80
2018-03-04T03:23:36.074Z,0.60
2018-03-04T03:26:03.605Z,0.60
2018-03-04T03:28:31.150Z,0.60
2018-03-04T03:30:58.749Z,0.50
2018-03-04T03:33:26.271Z,0.50
2018-03-04T03:35:53.875Z,0.50
2018-03-04T03:38:21.405Z,0.50
2018-03-04T03:40:48.911Z,0.50
2018-03-04T03:43:16.844Z,0.40
2018-03-04T03:45:44.356Z,0.40
2018-03-04T03:48:11.860Z,0.30
2018-03-04T03:50:39.487Z,0.20
2018-03-04T03:53:06.999Z,0.20
2018-03-04T03:55:34.994Z,0.20
2018-03-04T03:58:02.562Z,0.20
2018-03-04T04:00:30.091Z,0.10
2018-03-04T04:02:58.003Z,0.10
2018-03-04T04:05:25.535Z,0.20
2018-03-04T04:07:53.073Z,0.10
2018-03-04T04:10:21.005Z,0.00
2018-03-04T04:12:48.512Z,0.00
2018-03-04T04:15:16.052Z,0.10
2018-03-04T04:17:43.963Z,0.10
2018-03-04T04:20:11.496Z,0.10
2018-03-04T04:22:39.003Z,0.20
2018-03-04T04:25:06.527Z,0.20
2018-03-04T04:27:34.031Z,0.30
2018-03-04T04:30:01.575Z,0.30
2018-03-04T04:32:29.112Z,0.20
2018-03-04T04:34:57.016Z,0.20
2018-03-04T04:37:24.539Z,0.10
2018-03-04T04:39:52.055Z,0.10
2018-03-04T04:42:19.977Z,0.10
2018-03-04T04:44:47.481Z,0.10
2018-03-04T04:47:15.450Z,0.10
2018-03-04T04:49:43.376Z,0.10
2018-03-04T04:52:10.919Z,0.10
2018-03-04T04:54:38.484Z,0.10
2018-03-04T04:57:06.017Z,0.10
2018-03-04T04:59:33.535Z,0.20
2018-03-04T05:02:01.545Z,0.30
2018-03-04T05:04:29.191Z,0.30
2018-03-04T05:06:57.588Z,0.30
2018-03-04T05:09:25.096Z,0.30
2018-03-04T05:11:52.606Z,0.30
2018-03-04T05:14:20.146Z,0.30
2018-03-04T05:16:47.664Z,0.30
2018-03-04T05:19:15.200Z,0.40
2018-03-04T05:21:42.699Z,0.30
2018-03-04T05:24:10.647Z,0.20
2018-03-04T05:26:38.568Z,0.10
2018-03-04T05:29:06.091Z,0.10
2018-03-04T05:31:34.006Z,0.00
2018-03-04T05:34:01.665Z,0.00
2018-03-04T05:36:29.185Z,-0.10
2018-03-04T05:38:57.115Z,0.00
2018-03-04T05:41:24.637Z,0.00
2018-03-04T05:43:52.166Z,0.10
2018-03-04T05:46:20.075Z,0.10
2018-03-04T05:48:47.618Z,0.10
2018-03-04T05:51:15.156Z,0.10
2018-03-04T05:53:42.693Z,0.00
2018-03-04T05:56:10.612Z,0.00
2018-03-04T05:58:38.152Z,-0.10
2018-03-04T06:01:05.700Z,-0.10
2018-03-04T06:03:33.639Z,-0.20
2018-03-04T06:06:01.254Z,-0.20
2018-03-04T06:08:28.763Z,-0.20
2018-03-04T06:10:56.697Z,-0.10
2018-03-04T06:13:24.216Z,-0.10
2018-03-04T06:15:51.775Z,-0.10
2018-03-04T06:18:19.287Z,-0.10
2018-03-04T06:20:46.816Z,-0.10
2018-03-04T06:23:14.354Z,-0.10
2018-03-04T06:25:41.885Z,0.00
2018-03-04T06:28:09.786Z,0.20
2018-03-04T06:30:37.362Z,0.20
2018-03-04T06:33:04.871Z,0.20
2018-03-04T06:35:32.798Z,0.30
2018-03-04T06:38:00.303Z,0.30
2018-03-04T06:40:28.239Z,0.60
2018-03-04T06:42:55.750Z,0.60
2018-03-04T06:45:23.351Z,1.00
2018-03-04T06:47:50.869Z,1.40
2018-03-04T06:50:18.407Z,1.70
2018-03-04T06:52:45.916Z,1.90
2018-03-04T06:55:13.459Z,2.20
2018-03-04T06:57:40.984Z,2.30
2018-03-04T07:00:08.522Z,2.60
2018-03-04T07:02:36.440Z,3.10
2018-03-04T07:05:03.979Z,3.10
2018-03-04T07:07:31.523Z,3.30
2018-03-04T07:09:59.040Z,3.70
2018-03-04T07:12:26.571Z,3.90
2018-03-04T07:14:54.075Z,4.30
2018-03-04T07:17:22.082Z,5.20
2018-03-04T07:19:49.599Z,5.20
2018-03-04T07:22:17.527Z,5.80
2018-03-04T07:24:45.062Z,5.90
2018-03-04T07:27:12.605Z,5.80
2018-03-04T07:29:40.246Z,6.00
2018-03-04T07:32:07.779Z,6.40
2018-03-04T07:34:35.287Z,6.60
2018-03-04T07:37:02.859Z,6.70
2018-03-04T07:39:30.423Z,6.50
2018-03-04T07:41:58.007Z,6.20
2018-03-04T07:44:25.545Z,6.60
2018-03-04T07:46:53.082Z,6.80
2018-03-04T07:49:20.614Z,7.10
2018-03-04T07:51:48.525Z,7.40
2018-03-04T07:54:16.063Z,7.40
2018-03-04T07:56:43.567Z,7.50
2018-03-04T07:59:11.104Z,7.70
2018-03-04T08:01:38.652Z,7.70
2018-03-04T08:04:06.191Z,7.80
2018-03-04T08:06:33.708Z,7.80
2018-03-04T08:09:01.242Z,8.10
2018-03-04T08:11:28.811Z,8.00
2018-03-04T08:13:56.323Z,8.10
2018-03-04T08:16:23.847Z,8.20
2018-03-04T08:18:51.410Z,8.20
2018-03-04T08:21:18.912Z,8.20
2018-03-04T08:23:46.421Z,8.00
2018-03-04T08:26:26.250Z,7.80
2018-03-04T08:28:53.768Z,7.80
2018-03-04T08:31:21.296Z,8.10
2018-03-04T08:33:49.192Z,8.90
2018-03-04T08:36:16.741Z,9.00
2018-03-04T08:38:44.316Z,9.10
2018-03-04T08:41:11.861Z,9.20
2018-03-04T08:43:39.371Z,9.30
2018-03-04T08:46:06.999Z,9.60
2018-03-04T08:48:34.517Z,9.70
2018-03-04T08:51:02.444Z,9.90
2018-03-04T08:53:29.971Z,10.10
2018-03-04T08:55:57.504Z,10.10
2018-03-04T08:58:25.412Z,11.10
2018-03-04T09:00:53.039Z,11.10
2018-03-04T09:03:20.970Z,11.60
2018-03-04T09:05:48.479Z,11.60
2018-03-04T09:08:16.012Z,11.50
2018-03-04T09:10:43.620Z,11.60
2018-03-04T09:13:11.167Z,11.70
2018-03-04T09:15:39.268Z,11.90
2018-03-04T09:18:06.811Z,12.00
2018-03-04T09:20:34.331Z,12.00
2018-03-04T09:23:02.267Z,12.30
2018-03-04T09:25:29.789Z,12.30
2018-03-04T09:27:57.367Z,12.50
2018-03-04T09:30:24.875Z,12.80
2018-03-04T09:32:52.413Z,12.50
2018-03-04T09:35:20.343Z,12.30
2018-03-04T09:37:47.884Z,12.30
2018-03-04T09:40:15.400Z,12.50
2018-03-04T09:42:43.355Z,12.50
2018-03-04T09:45:10.882Z,12.50
2018-03-04T09:47:38.418Z,12.70
2018-03-04T09:50:05.935Z,13.10
2018-03-04T09:52:33.475Z,13.10
2018-03-04T09:55:00.996Z,13.00
2018-03-04T09:57:28.519Z,13.10
2018-03-04T09:59:56.456Z,13.90
2018-03-04T10:02:24.003Z,13.90
2018-03-04T10:04:51.538Z,14.00
2018-03-04T10:07:19.196Z,14.00
2018-03-04T10:09:46.731Z,13.80
2018-03-04T10:12:14.659Z,13.60
2018-03-04T10:14:42.207Z,13.70
2018-03-04T10:17:09.732Z,14.10
2018-03-04T10:19:37.271Z,14.40
2018-03-04T10:22:05.180Z,14.50
2018-03-04T10:24:32.708Z,14.50
2018-03-04T10:27:00.260Z,15.10
2018-03-04T10:29:28.192Z,15.20
2018-03-04T10:31:55.711Z,15.20
2018-03-04T10:34:23.251Z,15.30
2018-03-04T10:36:50.780Z,15.30
2018-03-04T10:39:18.291Z,15.50
2018-03-04T10:41:45.824Z,15.20
2018-03-04T10:44:13.355Z,15.30
2018-03-04T10:46:40.896Z,15.60
2018-03-04T10:49:08.403Z,15.90
2018-03-04T10:51:35.947Z,15.40
2018-03-04T10:54:03.850Z,14.50
2018-03-04T10:56:31.383Z,14.50
2018-03-04T10:58:59.060Z,14.50
2018-03-04T11:01:28.428Z,14.80
2018-03-04T11:03:56.515Z,14.40
2018-03-04T11:09:45.855Z,14.00
2018-03-04T11:12:13.409Z,12.90
2018-03-04T11:14:40.922Z,12.80
2018-03-04T11:17:08.511Z,11.70
2018-03-04T11:19:36.086Z,11.10
2018-03-04T11:22:03.619Z,11.10
2018-03-04T11:24:31.135Z,10.60
2018-03-04T11:26:59.071Z,10.00
2018-03-04T11:29:26.583Z,10.00
2018-03-04T11:31:54.112Z,9.60
2018-03-04T11:34:22.020Z,9.60
2018-03-04T11:36:49.579Z,9.60
2018-03-04T11:39:17.093Z,9.50
2018-03-04T11:41:44.627Z,9.50
2018-03-04T11:44:12.167Z,9.40
2018-03-04T11:46:39.684Z,9.30
2018-03-04T11:49:07.721Z,9.20
2018-03-04T11:51:35.339Z,9.10
2018-03-04T11:54:02.884Z,9.00
2018-03-04T11:56:30.396Z,8.90
2018-03-04T11:58:58.019Z,8.80
2018-03-04T12:01:25.625Z,8.80
2018-03-04T12:03:53.159Z,8.80
2018-03-04T12:06:20.769Z,8.80
2018-03-04T12:08:48.303Z,8.90
2018-03-04T12:11:15.831Z,8.90
2018-03-04T12:13:43.392Z,8.80
2018-03-04T12:16:10.891Z,8.80
2018-03-04T12:18:38.823Z,8.80
2018-03-04T12:21:06.319Z,8.80
2018-03-04T12:23:34.248Z,8.80
2018-03-04T12:26:01.775Z,8.90
2018-03-04T12:28:29.297Z,8.90
2018-03-04T12:30:57.195Z,8.90
2018-03-04T12:33:24.727Z,8.90
2018-03-04T12:35:52.627Z,9.00
2018-03-04T12:38:20.174Z,9.00
2018-03-04T12:40:47.684Z,9.00
2018-03-04T12:43:15.190Z,9.00
2018-03-04T12:45:42.722Z,9.10
2018-03-04T12:48:10.644Z,9.20
2018-03-04T12:50:38.171Z,9.20
2018-03-04T12:53:05.679Z,9.20
2018-03-04T12:55:33.265Z,9.30
2018-03-04T12:58:00.767Z,9.20
2018-03-04T13:00:28.324Z,9.30
2018-03-04T13:02:55.836Z,9.30
2018-03-04T13:05:23.758Z,9.30
2018-03-04T13:07:51.452Z,9.30
2018-03-04T13:10:18.986Z,9.30
2018-03-04T13:12:46.500Z,9.30
2018-03-04T13:15:14.032Z,9.20
2018-03-04T13:17:41.955Z,9.20
2018-03-04T13:20:09.483Z,9.10
2018-03-04T13:22:36.977Z,9.10
2018-03-04T13:25:04.497Z,9.10
2018-03-04T13:27:32.017Z,9.10
2018-03-04T13:29:59.553Z,9.10
2018-03-04T13:32:27.099Z,9.10
2018-03-04T13:34:54.616Z,9.10
2018-03-04T13:37:22.563Z,9.00
2018-03-04T13:39:50.072Z,9.00
2018-03-04T13:42:17.597Z,9.00
2018-03-04T13:44:45.491Z,9.00
2018-03-04T13:47:13.022Z,9.00
2018-03-04T13:49:40.563Z,9.10
2018-03-04T13:52:08.080Z,9.10
2018-03-04T13:54:35.606Z,9.10
2018-03-04T13:57:03.530Z,9.00
2018-03-04T13:59:31.041Z,9.00
2018-03-04T14:01:58.587Z,9.00
2018-03-04T14:04:26.487Z,9.10
2018-03-04T14:06:54.092Z,9.10
2018-03-04T14:09:22.008Z,9.00
2018-03-04T14:11:49.565Z,9.10
2018-03-04T14:14:17.079Z,9.00
2018-03-04T14:16:44.991Z,9.00
2018-03-04T14:19:12.528Z,9.00
2018-03-04T14:21:40.052Z,9.10
2018-03-04T14:24:07.582Z,9.00
2018-03-04T14:26:35.206Z,9.00
2018-03-04T14:29:02.735Z,8.90
2018-03-04T14:31:30.254Z,8.80
2018-03-04T14:33:57.787Z,8.80
2018-03-04T14:36:25.304Z,8.80
2018-03-04T14:38:52.839Z,8.80
2018-03-04T14:41:20.347Z,8.80
2018-03-04T14:43:48.333Z,8.90
2018-03-04T14:46:15.895Z,8.90
2018-03-04T14:48:43.421Z,8.90
2018-03-04T14:51:11.356Z,9.00
2018-03-04T14:53:38.881Z,9.00
2018-03-04T14:56:06.403Z,9.00
2018-03-04T14:58:34.308Z,9.00
2018-03-04T15:01:01.842Z,8.90
2018-03-04T15:03:29.358Z,8.80
2018-03-04T15:05:56.983Z,8.70
2018-03-04T15:08:24.499Z,8.60
2018-03-04T15:10:52.424Z,8.60
2018-03-04T15:13:19.934Z,8.60
2018-03-04T15:15:47.936Z,8.50
2018-03-04T15:18:16.211Z,8.50
2018-03-04T15:20:43.742Z,8.40
2018-03-04T15:23:11.646Z,8.40
2018-03-04T15:25:39.174Z,8.40
2018-03-04T15:28:06.790Z,8.30
2018-03-04T15:30:34.430Z,8.30
2018-03-04T15:33:01.992Z,8.20
2018-03-04T15:35:29.506Z,8.20
2018-03-04T15:37:57.439Z,8.10
2018-03-04T15:40:24.968Z,8.00
2018-03-04T15:42:52.509Z,7.90
2018-03-04T15:45:20.016Z,7.80
2018-03-04T15:47:47.555Z,7.70
2018-03-04T15:50:15.188Z,7.60
2018-03-04T15:52:42.723Z,7.50
2018-03-04T15:55:10.268Z,7.40
2018-03-04T15:57:38.188Z,7.40
2018-03-04T16:00:05.718Z,7.30
2018-03-04T16:02:33.255Z,7.30
2018-03-04T16:05:01.252Z,7.20
2018-03-04T16:07:28.778Z,7.20
2018-03-04T16:09:56.787Z,7.10
2018-03-04T16:12:24.452Z,7.00
2018-03-04T16:14:51.971Z,7.00
2018-03-04T16:17:19.974Z,6.90
2018-03-04T16:19:47.592Z,6.90
2018-03-04T16:22:15.508Z,6.80
2018-03-04T16:24:43.051Z,6.80
2018-03-04T16:27:10.556Z,6.70
2018-03-04T16:29:38.080Z,6.50
2018-03-04T16:32:05.672Z,6.50
2018-03-04T16:34:33.241Z,6.50
2018-03-04T16:37:01.292Z,6.30
2018-03-04T16:39:28.891Z,6.30
2018-03-04T16:41:56.798Z,6.20
2018-03-04T16:44:24.323Z,6.10
2018-03-04T16:46:52.228Z,6.00
2018-03-04T16:49:19.887Z,5.90
2018-03-04T16:51:47.407Z,5.80
2018-03-04T16:54:15.353Z,5.60
2018-03-04T16:56:42.863Z,5.50
2018-03-04T16:59:10.384Z,5.40
2018-03-04T17:01:38.330Z,5.30
2018-03-04T17:04:05.850Z,5.30
2018-03-04T17:06:33.425Z,5.20
2018-03-04T17:09:00.950Z,5.20
2018-03-04T17:11:28.499Z,5.10
2018-03-04T17:13:56.004Z,5.10
2018-03-04T17:16:23.703Z,5.00
2018-03-04T17:18:51.229Z,4.90
2018-03-04T17:21:18.782Z,4.90
2018-03-04T17:23:46.305Z,4.80
2018-03-04T17:26:13.839Z,4.80
2018-03-04T17:28:42.096Z,4.70
2018-03-04T17:31:10.033Z,4.60
2018-03-04T17:33:37.555Z,4.60
2018-03-04T17:36:05.098Z,4.50
2018-03-04T17:38:33.029Z,4.40
2018-03-04T17:41:00.536Z,4.40
2018-03-04T17:43:28.066Z,4.30
2018-03-04T17:45:56.084Z,4.30
2018-03-04T17:48:23.657Z,4.30
2018-03-04T17:50:51.178Z,4.40
2018-03-04T17:53:19.090Z,4.40
2018-03-04T17:55:46.631Z,4.40
2018-03-04T17:58:14.278Z,4.30
2018-03-04T18:00:41.839Z,4.30
2018-03-04T18:03:09.372Z,4.20
2018-03-04T18:05:37.271Z,4.10
2018-03-04T18:08:04.807Z,4.00
2018-03-04T18:10:32.320Z,4.00
2018-03-04T18:12:59.850Z,3.90
2018-03-04T18:15:27.374Z,3.80
2018-03-04T18:17:54.915Z,3.80
2018-03-04T18:20:22.916Z,3.70
2018-03-04T18:22:50.447Z,3.70
2018-03-04T18:25:18.444Z,3.70
2018-03-04T18:27:46.005Z,3.70
2018-03-04T18:30:13.515Z,3.70
2018-03-04T18:32:41.123Z,3.70
2018-03-04T18:35:08.635Z,3.70
2018-03-04T18:37:36.154Z,3.80
2018-03-04T18:40:03.696Z,3.80
2018-03-04T18:42:31.376Z,3.80
2018-03-04T18:44:59.023Z,3.80
2018-03-04T18:47:26.541Z,3.80
2018-03-04T18:49:54.485Z,3.90
2018-03-04T18:52:22.657Z,3.90
2018-03-04T18:58:22.228Z,3.90
2018-03-04T19:00:49.770Z,4.00
2018-03-04T19:03:17.682Z,3.90
2018-03-04T19:05:45.207Z,3.90
2018-03-04T19:08:12.723Z,4.00
2018-03-04T19:10:40.261Z,4.00
2018-03-04T19:13:07.776Z,4.00
2018-03-04T19:15:35.715Z,4.10
2018-03-04T19:18:03.226Z,4.10
2018-03-04T19:20:30.882Z,4.00
2018-03-04T19:22:58.492Z,4.00
2018-03-04T19:25:26.028Z,4.00
2018-03-04T19:27:53.553Z,4.00
2018-03-04T19:30:21.083Z,3.90
2018-03-04T19:32:49.016Z,3.90
2018-03-04T19:35:16.552Z,3.90
2018-03-04T19:37:44.064Z,4.00
2018-03-04T19:40:12.490Z,4.00
2018-03-04T19:42:40.010Z,4.00
2018-03-04T19:45:07.935Z,4.00
2018-03-04T19:47:35.464Z,4.00
2018-03-04T19:50:02.991Z,4.00
2018-03-04T19:52:30.894Z,3.70
2018-03-04T19:54:58.491Z,3.70
2018-03-04T19:57:26.003Z,3.70
2018-03-04T19:59:53.511Z,3.70
2018-03-04T20:02:21.039Z,3.70
2018-03-04T20:04:48.551Z,3.70
2018-03-04T20:07:16.496Z,3.70
2018-03-04T20:09:44.490Z,3.60
2018-03-04T20:12:12.426Z,3.40
2018-03-04T20:14:39.949Z,3.40
2018-03-04T20:17:07.485Z,3.30
2018-03-04T20:19:35.391Z,3.30
2018-03-04T20:22:03.051Z,3.30
2018-03-04T20:24:30.596Z,3.20
2018-03-04T20:26:58.179Z,3.30
2018-03-04T20:29:25.729Z,3.30
2018-03-04T20:31:53.291Z,3.40
2018-03-04T20:34:20.801Z,3.50
2018-03-04T20:36:48.724Z,3.50
2018-03-04T20:39:16.264Z,3.50
2018-03-04T20:41:43.793Z,3.60
2018-03-04T20:44:11.295Z,3.50
2018-03-04T20:46:38.818Z,3.60
2018-03-04T20:49:06.447Z,3.60
2018-03-04T20:51:34.415Z,3.50
2018-03-04T20:54:02.335Z,3.50
2018-03-04T20:56:29.895Z,3.40
2018-03-04T20:58:57.428Z,3.30
2018-03-04T21:01:24.935Z,3.30
2018-03-04T21:03:52.511Z,3.10
2018-03-04T21:06:20.428Z,3.00
2018-03-04T21:08:47.982Z,3.00
2018-03-04T21:11:15.503Z,3.00
2018-03-04T21:13:43.428Z,2.70
2018-03-04T21:16:10.946Z,2.60
2018-03-04T21:18:38.495Z,2.60
2018-03-04T21:21:06.418Z,2.50
2018-03-04T21:23:34.363Z,2.50
2018-03-04T21:26:01.889Z,2.50
2018-03-04T21:28:29.419Z,2.50
2018-03-04T21:30:57.344Z,2.50
2018-03-04T21:33:24.875Z,2.60
2018-03-04T21:35:52.403Z,2.60
2018-03-04T21:38:19.964Z,2.60
2018-03-04T21:40:47.872Z,2.40
2018-03-04T21:43:15.407Z,2.40
2018-03-04T21:45:43.313Z,2.40
2018-03-04T21:48:11.069Z,2.40
2018-03-04T21:50:38.580Z,2.50
2018-03-04T21:53:06.511Z,2.70
2018-03-04T21:55:34.051Z,2.70
2018-03-04T21:58:01.725Z,2.80
2018-03-04T22:00:29.315Z,2.80
2018-03-04T22:02:57.256Z,2.80
2018-03-04T22:05:24.758Z,2.80
2018-03-04T22:07:52.765Z,2.80
2018-03-04T22:10:20.278Z,2.70
2018-03-04T22:12:48.221Z,2.80
2018-03-04T22:15:15.725Z,2.70
2018-03-04T22:17:43.272Z,2.70
2018-03-04T22:20:11.172Z,2.60
2018-03-04T22:22:38.708Z,2.50
2018-03-04T22:25:06.219Z,2.50
2018-03-04T22:27:33.730Z,2.60
2018-03-04T22:30:01.260Z,2.50
2018-03-04T22:32:29.269Z,2.50
2018-03-04T22:34:56.836Z,2.50
2018-03-04T22:37:24.356Z,2.50
2018-03-04T22:39:52.298Z,2.50
2018-03-04T22:42:19.902Z,2.60
2018-03-04T22:44:47.454Z,2.60
2018-03-04T22:47:15.354Z,2.60
2018-03-04T22:49:42.895Z,2.50
2018-03-04T22:52:10.425Z,2.50
2018-03-04T22:54:38.351Z,2.50
2018-03-04T22:57:05.874Z,2.50
2018-03-04T22:59:33.415Z,2.50
2018-03-04T23:02:01.331Z,2.50
2018-03-04T23:04:29.279Z,2.60
2018-03-04T23:06:56.791Z,2.60
2018-03-04T23:09:24.695Z,2.60
2018-03-04T23:11:52.238Z,2.60
2018-03-04T23:14:19.758Z,2.60
2018-03-04T23:16:47.307Z,2.60
2018-03-04T23:19:14.815Z,2.40
2018-03-04T23:21:42.361Z,2.30
2018-03-04T23:24:10.648Z,2.30
2018-03-04T23:26:38.224Z,2.30
2018-03-04T23:29:05.768Z,2.30
2018-03-04T23:31:33.308Z,2.30
2018-03-04T23:34:01.211Z,2.30
2018-03-04T23:36:28.733Z,2.30
2018-03-04T23:38:56.644Z,2.30
2018-03-04T23:41:24.188Z,2.30
2018-03-04T23:43:51.693Z,2.30
2018-03-04T23:46:19.251Z,2.30
2018-03-04T23:48:46.766Z,2.30
2018-03-04T23:51:14.291Z,2.30
2018-03-04T23:53:42.231Z,2.30
2018-03-04T23:56:09.766Z,2.30
2018-03-04T23:58:37.413Z,2.30
